createdAt,value
2016-11-28T00:00:46.379Z,1019.28
2016-11-28T00:05:42.767Z,1019.26
2016-11-28T00:10:39.849Z,1019.40
2016-11-28T00:15:35.855Z,1019.40
2016-11-28T00:20:32.320Z,1019.45
2016-11-28T00:25:28.770Z,1019.51
2016-11-28T00:30:24.979Z,1019.50
2016-11-28T00:35:21.239Z,1019.50
2016-11-28T00:40:17.498Z,1019.58
2016-11-28T00:45:13.849Z,1019.63
2016-11-28T00:50:10.098Z,1019.74
2016-11-28T00:55:06.407Z,1019.78
2016-11-28T01:00:03.818Z,1019.83
2016-11-28T01:04:59.647Z,1019.75
2016-11-28T01:09:55.909Z,1019.85
2016-11-28T01:14:53.234Z,1019.90
2016-11-28T01:19:49.572Z,1019.89
2016-11-28T01:24:45.969Z,1019.95
2016-11-28T01:29:43.156Z,1019.97
2016-11-28T01:34:39.514Z,1020.04
2016-11-28T01:39:35.935Z,1020.01
2016-11-28T01:44:32.261Z,1020.03
2016-11-28T01:49:28.549Z,1019.98
2016-11-28T01:54:24.723Z,1020.02
2016-11-28T01:59:20.993Z,1020.05
2016-11-28T02:04:17.263Z,1020.13
2016-11-28T02:09:13.630Z,1020.23
2016-11-28T02:14:09.941Z,1020.29
2016-11-28T02:19:06.252Z,1020.29
2016-11-28T02:24:02.676Z,1020.16
2016-11-28T02:28:59.106Z,1020.29
2016-11-28T02:33:55.513Z,1020.27
2016-11-28T02:38:51.732Z,1020.31
2016-11-28T02:43:48.802Z,1020.26
2016-11-28T02:48:45.070Z,1020.28
2016-11-28T02:53:41.347Z,1020.31
2016-11-28T02:58:37.635Z,1020.28
2016-11-28T03:03:33.824Z,1020.36
2016-11-28T03:08:30.161Z,1020.39
2016-11-28T03:13:27.263Z,1020.41
2016-11-28T03:18:23.793Z,1020.33
2016-11-28T03:23:20.168Z,1020.29
2016-11-28T03:28:16.400Z,1020.36
2016-11-28T03:33:13.387Z,1020.35
2016-11-28T03:38:09.736Z,1020.38
2016-11-28T03:43:05.961Z,1020.48
2016-11-28T03:48:02.355Z,1020.62
2016-11-28T03:52:58.641Z,1020.62
2016-11-28T03:57:55.636Z,1020.66
2016-11-28T04:02:52.679Z,1020.73
2016-11-28T04:07:48.898Z,1020.83
2016-11-28T04:12:45.129Z,1020.76
2016-11-28T04:17:41.411Z,1020.86
2016-11-28T04:22:37.939Z,1020.82
2016-11-28T04:27:34.255Z,1020.80
2016-11-28T04:32:30.532Z,1020.80
2016-11-28T04:37:26.846Z,1020.90
2016-11-28T04:42:22.962Z,1021.02
2016-11-28T04:47:19.373Z,1021.00
2016-11-28T04:52:15.686Z,1021.05
2016-11-28T04:57:12.752Z,1021.08
2016-11-28T05:02:09.126Z,1021.07
2016-11-28T05:07:05.536Z,1021.06
2016-11-28T05:12:01.725Z,1021.22
2016-11-28T05:16:58.226Z,1021.26
2016-11-28T05:21:54.375Z,1021.33
2016-11-28T05:26:50.665Z,1021.42
2016-11-28T05:31:46.866Z,1021.47
2016-11-28T05:36:43.162Z,1021.46
2016-11-28T05:41:40.147Z,1021.48
2016-11-28T05:46:36.445Z,1021.60
2016-11-28T05:51:32.793Z,1021.70
2016-11-28T05:56:29.142Z,1021.67
2016-11-28T06:01:25.440Z,1021.80
2016-11-28T06:06:21.788Z,1021.85
2016-11-28T06:11:18.880Z,1021.93
2016-11-28T06:16:15.536Z,1022.05
2016-11-28T06:21:11.895Z,1022.25
2016-11-28T06:26:08.239Z,1022.27
2016-11-28T06:31:04.481Z,1022.35
2016-11-28T06:36:01.182Z,1022.42
2016-11-28T06:40:57.695Z,1022.51
2016-11-28T06:45:53.842Z,1022.47
2016-11-28T06:50:50.158Z,1022.58
2016-11-28T06:55:46.521Z,1022.77
2016-11-28T07:00:44.106Z,1022.72
2016-11-28T07:05:40.254Z,1022.75
2016-11-28T07:10:36.597Z,1022.80
2016-11-28T07:15:33.007Z,1022.87
2016-11-28T07:20:29.367Z,1022.92
2016-11-28T07:25:25.814Z,1022.91
2016-11-28T07:30:22.633Z,1023.10
2016-11-28T07:35:19.132Z,1023.19
2016-11-28T07:40:15.531Z,1023.34
2016-11-28T07:45:11.872Z,1023.36
2016-11-28T07:50:08.108Z,1023.45
2016-11-28T07:55:05.479Z,1023.48
2016-11-28T08:00:01.481Z,1023.49
2016-11-28T08:04:57.492Z,1023.62
2016-11-28T08:09:55.447Z,1023.66
2016-11-28T08:14:51.772Z,1023.80
2016-11-28T08:19:49.290Z,1023.90
2016-11-28T08:24:45.929Z,1023.96
2016-11-28T08:29:42.583Z,1024.02
2016-11-28T08:34:38.956Z,1024.10
2016-11-28T08:39:35.512Z,1024.26
2016-11-28T08:44:32.405Z,1024.28
2016-11-28T08:49:29.098Z,1024.33
2016-11-28T08:54:26.064Z,1024.44
2016-11-28T08:59:22.717Z,1024.53
2016-11-28T09:04:19.722Z,1024.58
2016-11-28T09:09:16.829Z,1024.62
2016-11-28T09:14:14.270Z,1024.66
2016-11-28T09:19:11.067Z,1024.70
2016-11-28T09:24:07.757Z,1024.87
2016-11-28T09:29:05.369Z,1024.81
2016-11-28T09:34:03.725Z,1024.89
2016-11-28T09:38:59.878Z,1024.85
2016-11-28T09:43:56.577Z,1024.99
2016-11-28T09:48:53.218Z,1024.91
2016-11-28T09:53:50.346Z,1024.86
2016-11-28T09:58:49.238Z,1024.87
2016-11-28T10:03:46.301Z,1024.89
2016-11-28T10:08:44.923Z,1025.01
2016-11-28T10:13:40.554Z,1024.98
2016-11-28T10:18:36.884Z,1024.89
2016-11-28T10:23:33.116Z,1024.90
2016-11-28T10:28:30.311Z,1024.97
2016-11-28T10:33:26.478Z,1024.92
2016-11-28T10:38:23.520Z,1024.99
2016-11-28T10:43:20.490Z,1025.01
2016-11-28T10:53:19.843Z,1024.92
2016-11-28T10:58:16.628Z,1024.96
2016-11-28T11:03:13.506Z,1024.94
2016-11-28T11:08:10.579Z,1024.88
2016-11-28T11:13:08.684Z,1024.88
2016-11-28T11:18:04.925Z,1024.97
2016-11-28T11:23:02.939Z,1024.92
2016-11-28T11:27:59.061Z,1024.93
2016-11-28T11:32:55.893Z,1025.06
2016-11-28T11:37:52.242Z,1025.07
2016-11-28T11:42:49.904Z,1025.07
2016-11-28T11:47:49.523Z,1025.07
2016-11-28T11:52:45.993Z,1024.98
2016-11-28T11:57:42.239Z,1025.10
2016-11-28T12:02:38.656Z,1025.11
2016-11-28T12:07:35.058Z,1025.08
2016-11-28T12:12:31.968Z,1025.01
2016-11-28T12:17:29.236Z,1025.07
2016-11-28T12:22:26.573Z,1025.13
2016-11-28T12:32:25.655Z,1025.13
2016-11-28T12:37:21.638Z,1025.21
2016-11-28T12:42:18.420Z,1025.20
2016-11-28T12:47:15.020Z,1025.17
2016-11-28T12:52:11.118Z,1025.14
2016-11-28T13:02:12.542Z,1025.21
2016-11-28T13:07:09.078Z,1025.35
2016-11-28T13:12:05.804Z,1025.31
2016-11-28T13:17:02.111Z,1025.22
2016-11-28T13:21:59.359Z,1025.13
2016-11-28T13:26:56.753Z,1025.29
2016-11-28T13:31:52.918Z,1025.34
2016-11-28T13:36:49.417Z,1025.35
2016-11-28T13:41:46.193Z,1025.41
2016-11-28T13:46:43.364Z,1025.54
2016-11-28T13:51:40.005Z,1025.55
2016-11-28T13:56:37.474Z,1025.56
2016-11-28T14:01:34.013Z,1025.65
2016-11-28T14:06:31.560Z,1025.67
2016-11-28T14:11:28.126Z,1025.73
2016-11-28T14:16:24.874Z,1025.69
2016-11-28T14:21:21.949Z,1025.75
2016-11-28T14:26:18.499Z,1025.77
2016-11-28T14:31:15.194Z,1025.81
2016-11-28T14:36:11.886Z,1025.94
2016-11-28T14:41:08.944Z,1025.94
2016-11-28T14:46:05.291Z,1025.91
2016-11-28T14:51:01.613Z,1025.82
2016-11-28T14:55:59.403Z,1025.85
2016-11-28T15:00:55.876Z,1025.82
2016-11-28T15:05:52.528Z,1025.95
2016-11-28T15:10:48.924Z,1025.95
2016-11-28T15:15:47.356Z,1026.06
2016-11-28T15:20:43.827Z,1026.02
2016-11-28T15:25:40.097Z,1026.07
2016-11-28T15:30:37.879Z,1026.11
2016-11-28T15:35:33.898Z,1026.13
2016-11-28T15:40:31.108Z,1026.25
2016-11-28T15:45:27.017Z,1026.19
2016-11-28T15:50:23.747Z,1026.27
2016-11-28T15:55:20.620Z,1026.12
2016-11-28T16:00:17.077Z,1026.11
2016-11-28T16:05:14.032Z,1026.27
2016-11-28T16:10:10.754Z,1026.27
2016-11-28T16:15:07.310Z,1026.40
2016-11-28T16:20:03.893Z,1026.51
2016-11-28T16:25:00.811Z,1026.59
2016-11-28T16:29:57.191Z,1026.60
2016-11-28T16:34:54.453Z,1026.58
2016-11-28T16:39:51.064Z,1026.52
2016-11-28T16:44:47.126Z,1026.55
2016-11-28T16:49:43.346Z,1026.50
2016-11-28T16:54:39.767Z,1026.58
2016-11-28T16:59:36.116Z,1026.73
2016-11-28T17:04:32.946Z,1026.65
2016-11-28T17:09:28.765Z,1026.68
2016-11-28T17:14:25.076Z,1026.77
2016-11-28T17:19:21.481Z,1026.64
2016-11-28T17:24:18.983Z,1026.61
2016-11-28T17:29:14.881Z,1026.66
2016-11-28T17:34:11.579Z,1026.76
2016-11-28T17:39:07.591Z,1026.69
2016-11-28T17:44:03.968Z,1026.88
2016-11-28T17:49:00.437Z,1026.97
2016-11-28T17:53:57.531Z,1027.04
2016-11-28T17:58:54.093Z,1027.06
2016-11-28T18:03:50.351Z,1027.01
2016-11-28T18:08:47.191Z,1026.98
2016-11-28T18:13:44.035Z,1027.14
2016-11-28T18:18:40.497Z,1027.16
2016-11-28T18:23:36.748Z,1027.23
2016-11-28T18:28:32.936Z,1027.30
2016-11-28T18:33:29.219Z,1027.30
2016-11-28T18:38:26.401Z,1027.34
2016-11-28T18:43:22.426Z,1027.36
2016-11-28T18:48:19.267Z,1027.44
2016-11-28T18:53:15.798Z,1027.41
2016-11-28T18:58:12.867Z,1027.50
2016-11-28T19:03:09.111Z,1027.43
2016-11-28T19:08:05.376Z,1027.55
2016-11-28T19:13:01.597Z,1027.58
2016-11-28T19:17:58.180Z,1027.60
2016-11-28T19:22:54.648Z,1027.61
2016-11-28T19:27:50.674Z,1027.68
2016-11-28T19:32:47.081Z,1027.65
2016-11-28T19:37:43.344Z,1027.56
2016-11-28T19:42:39.656Z,1027.61
2016-11-28T19:47:36.039Z,1027.69
2016-11-28T19:57:32.833Z,1027.73
2016-11-28T20:02:29.108Z,1027.80
2016-11-28T20:07:25.586Z,1027.72
2016-11-28T20:12:22.021Z,1027.75
2016-11-28T20:17:18.398Z,1027.82
2016-11-28T20:22:14.693Z,1027.80
2016-11-28T20:27:11.026Z,1027.83
2016-11-28T20:32:07.339Z,1027.85
2016-11-28T20:37:03.456Z,1027.88
2016-11-28T20:42:00.512Z,1027.88
2016-11-28T20:46:57.311Z,1027.89
2016-11-28T20:51:53.583Z,1027.93
2016-11-28T20:56:49.886Z,1027.92
2016-11-28T21:01:46.162Z,1028.00
2016-11-28T21:06:42.323Z,1027.92
2016-11-28T21:11:39.381Z,1028.05
2016-11-28T21:16:35.498Z,1028.01
2016-11-28T21:21:31.623Z,1027.94
2016-11-28T21:26:27.946Z,1028.05
2016-11-28T21:31:26.701Z,1027.97
2016-11-28T21:36:22.828Z,1027.92
2016-11-28T21:41:19.248Z,1027.97
2016-11-28T21:46:15.807Z,1027.99
2016-11-28T21:51:12.011Z,1028.00
2016-11-28T21:56:08.280Z,1027.91
2016-11-28T22:01:04.725Z,1028.00
2016-11-28T22:06:00.948Z,1028.06
2016-11-28T22:10:57.855Z,1028.06
2016-11-28T22:15:54.217Z,1027.98
2016-11-28T22:20:50.636Z,1028.06
2016-11-28T22:25:46.904Z,1028.06
2016-11-28T22:30:43.178Z,1028.07
2016-11-28T22:35:39.436Z,1028.07
2016-11-28T22:40:36.338Z,1028.11
2016-11-28T22:45:32.646Z,1028.02
2016-11-28T22:50:28.835Z,1028.09
2016-11-28T22:55:25.449Z,1028.01
2016-11-28T23:00:21.641Z,1028.04
2016-11-28T23:05:19.038Z,1028.09
2016-11-28T23:10:14.967Z,1028.13
2016-11-28T23:15:11.380Z,1028.16
2016-11-28T23:20:07.783Z,1028.18
2016-11-28T23:25:04.087Z,1028.22
2016-11-28T23:30:00.378Z,1028.18
2016-11-28T23:34:57.354Z,1028.17
2016-11-28T23:39:53.601Z,1028.05
2016-11-28T23:44:50.308Z,1028.13
2016-11-28T23:49:46.649Z,1028.18
2016-11-28T23:54:43.441Z,1028.00
2016-11-28T23:59:40.501Z,1028.06
